This demonstration page uses our WeatherBlox Daily Observations layout. Learn more.

Left ArrowRight Arrow

41.55636, -103.73856

Hourly Observations for June 17, 2015

Temp ( °F °C ) Dew Point ( °F °C ) Humidity (%) Winds ( mph kmh ) Pressure ( in mb ) Visibility ( mi km ) Precip ( " mm )
4:53 am 04:53 Clear 54 12.2 53 11.7 97 97 SSW 5 7 30.02 1017 10 16.0934 0 0
5:53 am 05:53 Sunny 55 12.8 53 11.7 93 93 Calm 30.04 1017 10 16.0934 0 0
6:15 am 06:15 Partly Cloudy 55 12.8 53 11.7 93 93 Calm 30.03 1017 10 16.0934 0 0
6:53 am 06:53 Sunny 59 15 55 12.8 87 87 E 3 6 30.04 1017 10 16.0934 0 0
7:21 am 07:21 Mostly Sunny 61 16.1 58 14.4 90 90 E 3 6 30 1016 10 16.0934 0 0
7:53 am 07:53 Partly Cloudy 62 16.7 58 14.4 86 86 VRB 3 6 30.04 1017 10 16.0934 0 0
8:03 am 08:03 Mostly Cloudy 63 17 57 14 83 83 ESE 5 7 29.97 1015 10 16.0934 0 0
8:14 am 08:14 Partly Cloudy 61 16.1 58 14.4 90 90 E 3 6 30 1016 10 16.0934 0 0
8:53 am 08:53 Sunny 65 18.3 60 15.6 84 84 E 5 7 30.04 1017 10 16.0934 0 0
9:53 am 09:53 Sunny 68 20 57 13.9 68 68 ESE 5 7 30.02 1017 10 16.0934 0 0
10:53 am 10:53 Sunny 71 21.7 57 13.9 61 61 E 5 7 30 1016 10 16.0934 0 0
11:53 am 11:53 Sunny 73 22.8 57 13.9 57 57 ESE 7 11 29.99 1016 10 16.0934 0 0
12:53 pm 12:53 Sunny 76 24.4 61 16.1 60 60 SE 9 15 29.98 1015 10 16.0934 0 0
1:53 pm 13:53 Sunny 77 25 59 15 54 54 VRB 7 11 29.96 1015 10 16.0934 0 0
2:53 pm 14:53 Sunny 80 26.7 60 15.6 51 51 ESE 9 15 29.92 1013 10 16.0934 0 0
3:53 pm 15:53 Sunny 81 27.2 61 16.1 51 51 ESE 15 24 29.9 1013 10 16.0934 0 0
4:53 pm 16:53 Sunny 81 27.2 61 16.1 51 51 SE 16 26 29.9 1012 10 16.0934 0 0
5:53 pm 17:53 Sunny with Nearby Thunderstorms 77 25 61 16.1 58 58 ESE 12 19 29.88 1012 10 16.0934 0 0
6:16 pm 18:16 Partly Cloudy with Thunderstorms 76 24.4 62 16.7 62 62 VRB 6 9 29.8 1009 10 16.0934 0 0
6:21 pm 18:21 Partly Cloudy with Thunderstorms 73 22.8 63 17.2 71 71 Calm 29.8 1009 1.5 2.41401 0.02 0.508
6:31 pm 18:31 Mostly Cloudy with Light Thunderstorms 70 21.1 62 16.7 76 76 E 9 15 29.8 1009 3 4.82802 0.13 3.302
6:50 pm 18:50 Mostly Cloudy with Nearby Thunderstorms 72 22 64 18 78 78 SE 7 11 29.8 1009 10 16.0934 0 0
6:53 pm 18:53 Mostly Cloudy with Nearby Thunderstorms 71 21.7 64 17.8 79 79 E 9 15 29.9 1012 10 16.0934 0.14 3.556
7:06 pm 19:06 Partly Cloudy with Light Rain 72 22.2 64 17.8 76 76 NNE 14 22 29.8 1009 10 16.0934 0 0.0254
7:53 pm 19:53 Sunny 73 22.8 64 17.8 74 74 E 5 7 29.88 1012 10 16.0934 0 0.0254
8:53 pm 20:53 Clear 70 21.1 64 17.8 82 82 Calm 29.88 1012 10 16.0934 0 0
9:53 pm 21:53 Clear 68 20 62 16.7 81 81 E 9 15 29.88 1012 10 16.0934 0 0
10:53 pm 22:53 Clear 67 19.4 62 16.7 84 84 ESE 10 17 29.87 1012 10 16.0934 0 0
11:53 pm 23:53 Clear 67 19.4 63 17.2 87 87 ESE 13 20 29.86 1011 10 16.0934 0 0

Powered by AerisWeather